Time;durP1;ratioP1;P1;durP2;ratioP2;P2;SDS_P1;SDS_P2;PMS_P1;PMS_P2;Temp;Humidity;BMP_temperature;BMP_pressure;BME280_temperature;BME280_humidity;BME280_pressure;Samples;Min_cycle;Max_cycle;Signal;HPM_P1;HPM_P2
2022/01/03 00:00:10;;;;;;;7.15;1.92;;;12.40;99.90;;;;;;4976851;28;20049;-83
2022/01/03 00:02:35;;;;;;;;;;;12.30;99.90;;;;;;4970074;28;20072;-82
2022/01/03 00:05:01;;;;;;;9.38;1.50;;;12.30;99.90;;;;;;4977417;28;19951;-81
2022/01/03 00:07:27;;;;;;;9.23;1.60;;;12.40;99.90;;;;;;4983516;28;20054;-77
2022/01/03 00:09:53;;;;;;;11.18;2.03;;;13.20;99.90;;;;;;4969277;28;20567;-82
2022/01/03 00:12:21;;;;;;;11.10;1.88;;;12.50;99.90;;;;;;4975598;28;20124;-79
2022/01/03 00:14:49;;;;;;;9.63;1.95;;;12.50;99.90;;;;;;4973464;28;20022;-83
2022/01/03 00:17:14;;;;;;;5.90;1.65;;;12.40;99.90;;;;;;4976006;28;20022;-81
2022/01/03 00:19:40;;;;;;;13.73;2.17;;;12.40;99.90;;;;;;4974540;28;20026;-81
2022/01/03 00:22:07;;;;;;;9.38;1.98;;;12.40;99.90;;;;;;4981221;28;20046;-79
2022/01/03 00:24:35;;;;;;;9.70;2.00;;;12.40;99.90;;;;;;4986234;28;20480;-80
2022/01/03 00:27:05;;;;;;;12.75;1.88;;;12.30;99.90;;;;;;4975535;28;20034;-81
2022/01/03 00:29:57;;;;;;;10.05;2.20;;;13.00;99.90;;;;;;4980613;28;20638;-82
2022/01/03 00:32:22;;;;;;;11.70;1.70;;;12.40;99.90;;;;;;4984385;28;20084;-79
2022/01/03 00:34:51;;;;;;;8.38;1.55;;;12.30;99.90;;;;;;4993827;28;20027;-82
2022/01/03 00:37:20;;;;;;;8.65;1.75;;;12.40;99.90;;;;;;4988689;28;20030;-82
2022/01/03 00:39:46;;;;;;;7.93;2.33;;;12.40;99.90;;;;;;4995661;28;20035;-83
2022/01/03 00:42:14;;;;;;;11.73;1.90;;;12.30;99.90;;;;;;4979939;28;20034;-82
2022/01/03 00:44:42;;;;;;;11.18;2.30;;;12.30;99.90;;;;;;4986397;28;20041;-82
2022/01/03 00:47:10;;;;;;;8.90;1.75;;;12.30;99.90;;;;;;4989246;28;20038;-80
2022/01/03 00:49:42;;;;;;;10.00;2.10;;;12.20;99.90;;;;;;4985180;28;20098;-82
2022/01/03 00:52:08;;;;;;;12.23;2.58;;;12.20;99.90;;;;;;4989979;28;20519;-82
2022/01/03 00:54:34;;;;;;;12.00;2.35;;;12.20;99.90;;;;;;4979517;28;20161;-81
2022/01/03 00:57:04;;;;;;;12.43;1.95;;;12.30;99.90;;;;;;4991477;28;20091;-83
2022/01/03 00:59:38;;;;;;;9.75;1.60;;;12.30;99.90;;;;;;4989411;28;20022;-81
2022/01/03 01:02:07;;;;;;;14.48;2.03;;;12.30;99.90;;;;;;4981775;28;20038;-81
2022/01/03 01:04:34;;;;;;;9.20;2.00;;;12.20;99.90;;;;;;4986807;28;20023;-82
2022/01/03 01:06:59;;;;;;;10.32;2.00;;;12.10;99.90;;;;;;4982559;28;20659;-80
2022/01/03 01:09:27;;;;;;;10.60;1.95;;;12.30;99.90;;;;;;5004032;28;20516;-83
2022/01/03 01:11:55;;;;;;;10.98;2.10;;;12.30;99.90;;;;;;4988766;28;20053;-81
2022/01/03 01:14:22;;;;;;;9.45;1.90;;;12.80;99.90;;;;;;4991182;28;20037;-80
2022/01/03 01:16:48;;;;;;;7.55;2.05;;;12.30;99.90;;;;;;4993612;28;20023;-83
2022/01/03 01:19:14;;;;;;;7.95;1.63;;;12.80;99.90;;;;;;4983353;28;20031;-82
2022/01/03 01:21:41;;;;;;;12.35;2.35;;;12.20;99.90;;;;;;4986114;28;20034;-81
2022/01/03 01:24:07;;;;;;;7.53;1.73;;;12.10;99.90;;;;;;4996976;28;20091;-82
2022/01/03 01:29:17;;;;;;;14.85;2.75;;;12.00;99.90;;;;;;4992245;28;20091;-84
2022/01/03 01:31:49;;;;;;;12.55;1.80;;;12.00;99.90;;;;;;4989240;28;20022;-82
2022/01/03 01:34:23;;;;;;;8.35;1.80;;;12.00;99.90;;;;;;4978679;28;20046;-82
2022/01/03 01:36:53;;;;;;;12.60;2.30;;;12.10;99.90;;;;;;4992691;28;20046;-83
2022/01/03 01:39:23;;;;;;;8.40;1.55;;;12.00;99.90;;;;;;4983028;28;20038;-81
2022/01/03 01:41:53;;;;;;;8.45;1.73;;;12.20;99.90;;;;;;4986111;28;20149;-81
2022/01/03 01:44:20;;;;;;;10.05;1.70;;;12.20;99.90;;;;;;5002701;28;20057;-80
2022/01/03 01:46:53;;;;;;;10.35;1.70;;;12.20;99.90;;;;;;4979220;28;20030;-83
2022/01/03 01:49:23;;;;;;;15.77;2.20;;;12.60;99.90;;;;;;4991989;28;20030;-83
2022/01/03 01:52:03;;;;;;;9.50;2.35;;;12.20;99.90;;;;;;4981361;28;20072;-80
2022/01/03 01:54:37;;;;;;;10.63;1.85;;;12.20;99.90;;;;;;4983554;28;20038;-81
2022/01/03 01:57:03;;;;;;;12.82;2.33;;;12.10;99.90;;;;;;4987812;28;20503;-81
2022/01/03 01:59:58;;;;;;;10.32;1.70;;;12.00;99.90;;;;;;4990553;28;20026;-82
2022/01/03 02:02:35;;;;;;;8.50;1.80;;;12.00;99.90;;;;;;4985777;28;20404;-83
2022/01/03 02:05:30;;;;;;;13.32;1.95;;;12.00;99.90;;;;;;4982307;28;20031;-84
2022/01/03 02:08:13;;;;;;;8.48;2.00;;;11.90;99.90;;;;;;4974513;28;20057;-84
2022/01/03 02:10:42;;;;;;;9.80;1.70;;;11.90;99.90;;;;;;4980264;28;20034;-80
2022/01/03 02:13:08;;;;;;;12.57;2.20;;;11.80;99.90;;;;;;4982442;28;20069;-81
2022/01/03 02:15:36;;;;;;;6.35;1.55;;;11.80;99.90;;;;;;4978550;28;20023;-83
2022/01/03 02:18:02;;;;;;;9.15;1.80;;;11.90;99.90;;;;;;4980175;28;20029;-81
2022/01/03 02:20:30;;;;;;;11.75;2.28;;;11.80;99.90;;;;;;4998062;28;20032;-82
2022/01/03 02:22:56;;;;;;;14.10;1.90;;;11.80;99.90;;;;;;4977207;28;20015;-82
2022/01/03 02:25:27;;;;;;;11.27;2.40;;;11.80;99.90;;;;;;4999009;28;20027;-83
2022/01/03 02:27:54;;;;;;;7.22;1.70;;;11.80;99.90;;;;;;4978385;28;20031;-83
2022/01/03 02:30:23;;;;;;;8.55;1.73;;;11.80;99.90;;;;;;4976692;28;20487;-81
2022/01/03 02:32:49;;;;;;;12.70;2.70;;;11.90;99.90;;;;;;4985146;28;20027;-84
2022/01/03 02:35:15;;;;;;;7.93;1.60;;;11.80;99.90;;;;;;4997865;28;20117;-83
2022/01/03 02:37:45;;;;;;;11.57;1.60;;;12.60;99.90;;;;;;5008105;28;20023;-81
2022/01/03 02:40:11;;;;;;;5.55;1.60;;;11.80;99.90;;;;;;4999460;28;20041;-84
2022/01/03 02:42:38;;;;;;;9.43;1.85;;;11.70;99.90;;;;;;4993946;28;20020;-81
2022/01/03 02:45:07;;;;;;;10.75;2.05;;;11.80;99.90;;;;;;4977638;28;20039;-85
2022/01/03 02:47:34;;;;;;;7.95;2.05;;;11.70;99.90;;;;;;4982410;28;20799;-82
2022/01/03 02:50:00;;;;;;;11.52;2.22;;;11.60;99.90;;;;;;4994974;28;20121;-81
2022/01/03 02:52:25;;;;;;;14.20;2.28;;;11.60;99.90;;;;;;4987389;28;20034;-82
2022/01/03 02:54:52;;;;;;;11.05;1.95;;;11.60;99.90;;;;;;4984933;28;20050;-80
2022/01/03 02:57:23;;;;;;;11.75;2.00;;;11.50;99.90;;;;;;4986591;28;20026;-79
2022/01/03 02:59:55;;;;;;;8.63;2.20;;;11.60;99.90;;;;;;4980617;28;20033;-81
2022/01/03 03:02:22;;;;;;;13.73;2.40;;;11.60;99.90;;;;;;4980625;28;20026;-82
2022/01/03 03:04:56;;;;;;;9.80;1.80;;;11.70;99.90;;;;;;4990875;28;20215;-82
2022/01/03 03:07:23;;;;;;;16.33;3.08;;;11.60;99.90;;;;;;4979760;28;20038;-82
2022/01/03 03:09:49;;;;;;;8.82;2.05;;;11.50;99.90;;;;;;4981582;28;20050;-81
2022/01/03 03:12:15;;;;;;;11.85;2.00;;;11.60;99.90;;;;;;4984186;28;20038;-83
2022/01/03 03:14:41;;;;;;;10.20;2.25;;;11.60;99.90;;;;;;4978822;28;20022;-80
2022/01/03 03:17:07;;;;;;;11.40;2.00;;;11.50;99.90;;;;;;4980418;28;20031;-82
2022/01/03 03:19:48;;;;;;;9.57;2.08;;;11.40;99.90;;;;;;4975925;28;20126;-78
2022/01/03 03:22:13;;;;;;;11.38;2.05;;;11.40;99.90;;;;;;4982043;28;20148;-84
2022/01/03 03:24:39;;;;;;;11.23;1.92;;;11.40;99.90;;;;;;4981477;28;20502;-79
2022/01/03 03:27:08;;;;;;;10.00;2.10;;;11.40;99.90;;;;;;4981542;28;20074;-81
2022/01/03 03:29:34;;;;;;;12.32;1.80;;;11.50;99.90;;;;;;4984302;28;20384;-82
2022/01/03 03:31:59;;;;;;;13.50;1.95;;;11.50;99.90;;;;;;4976779;28;20019;-80
2022/01/03 03:34:25;;;;;;;16.52;3.65;;;11.40;99.90;;;;;;4986748;28;20022;-80
2022/01/03 03:36:51;;;;;;;12.95;2.40;;;12.40;99.90;;;;;;4978939;28;20023;-82
2022/01/03 03:39:17;;;;;;;11.85;1.70;;;11.40;99.90;;;;;;4996900;28;20366;-81
2022/01/03 03:41:43;;;;;;;13.13;2.33;;;11.30;99.90;;;;;;5007760;28;20060;-80
2022/01/03 03:44:09;;;;;;;9.88;2.03;;;11.20;99.90;;;;;;4976683;28;20058;-79
2022/01/03 03:46:34;;;;;;;11.55;1.83;;;11.20;99.90;;;;;;4979028;28;20073;-83
2022/01/03 03:49:00;;;;;;;11.30;2.00;;;11.30;99.90;;;;;;4975190;28;20122;-84
2022/01/03 03:51:25;;;;;;;17.40;3.05;;;11.40;99.90;;;;;;4976486;28;20027;-81
2022/01/03 03:53:51;;;;;;;12.82;2.47;;;11.40;99.90;;;;;;4982898;28;20026;-85
2022/01/03 03:56:17;;;;;;;11.90;1.90;;;11.40;99.90;;;;;;4993015;28;20031;-82
2022/01/03 03:58:42;;;;;;;17.80;3.00;;;12.00;99.90;;;;;;4985087;28;20031;-80
2022/01/03 04:01:08;;;;;;;14.23;2.05;;;11.40;99.90;;;;;;4978930;28;20018;-78
2022/01/03 04:03:33;;;;;;;14.60;2.78;;;11.30;99.90;;;;;;4979449;28;20057;-81
2022/01/03 04:06:00;;;;;;;10.32;2.17;;;11.30;99.90;;;;;;4981093;28;20042;-82
2022/01/03 04:08:25;;;;;;;9.93;1.83;;;11.40;99.90;;;;;;4983937;28;20027;-82
2022/01/03 04:10:51;;;;;;;8.23;1.75;;;11.20;99.90;;;;;;4983190;28;20045;-80
2022/01/03 04:13:17;;;;;;;11.23;2.72;;;11.20;99.90;;;;;;4988524;28;20034;-80
2022/01/03 04:15:43;;;;;;;11.68;2.13;;;11.20;99.90;;;;;;4990641;28;20026;-82
2022/01/03 04:18:08;;;;;;;18.40;2.42;;;11.20;99.90;;;;;;5002321;28;20041;-81
2022/01/03 04:20:34;;;;;;;13.60;1.90;;;11.10;99.90;;;;;;4986779;28;20018;-81
2022/01/03 04:23:00;;;;;;;11.88;2.13;;;11.20;99.90;;;;;;4982240;28;20026;-80
2022/01/03 04:25:26;;;;;;;12.70;2.22;;;11.30;99.90;;;;;;4989333;28;20077;-79
2022/01/03 04:27:52;;;;;;;11.90;1.80;;;11.30;99.90;;;;;;4981510;28;20044;-82
2022/01/03 04:30:17;;;;;;;10.88;2.65;;;11.20;99.90;;;;;;4991676;28;20038;-82
2022/01/03 04:32:43;;;;;;;10.90;2.10;;;11.30;99.90;;;;;;4982445;28;20042;-84
2022/01/03 04:35:09;;;;;;;12.20;1.90;;;12.50;99.90;;;;;;4984290;28;20035;-83
2022/01/03 04:37:34;;;;;;;12.93;2.15;;;11.30;99.90;;;;;;4979726;28;20114;-83
2022/01/03 04:40:00;;;;;;;8.05;1.70;;;11.30;99.90;;;;;;4996699;28;20026;-84
2022/01/03 04:42:26;;;;;;;10.65;1.77;;;11.30;99.90;;;;;;5018883;28;20039;-81
2022/01/03 04:44:52;;;;;;;10.55;2.40;;;11.20;99.90;;;;;;4974417;28;20080;-83
2022/01/03 04:47:17;;;;;;;9.13;1.90;;;11.10;99.90;;;;;;4981433;28;20058;-82
2022/01/03 04:49:43;;;;;;;10.38;2.00;;;11.20;99.90;;;;;;4982097;28;20039;-82
2022/01/03 04:52:08;;;;;;;11.32;1.77;;;11.20;99.90;;;;;;4985045;28;20026;-83
2022/01/03 04:54:34;;;;;;;8.70;1.85;;;11.30;99.90;;;;;;4991045;28;20056;-82
2022/01/03 04:57:00;;;;;;;11.77;2.58;;;11.20;99.90;;;;;;4986360;28;20069;-83
2022/01/03 04:59:26;;;;;;;11.57;2.00;;;11.30;99.90;;;;;;4979729;28;20495;-82
2022/01/03 05:01:52;;;;;;;13.50;2.53;;;12.90;99.90;;;;;;4980046;28;20039;-85
2022/01/03 05:04:17;;;;;;;12.68;1.88;;;11.20;99.90;;;;;;4984614;28;20045;-83
2022/01/03 05:06:43;;;;;;;12.68;2.30;;;12.30;99.90;;;;;;5005292;28;20038;-81
2022/01/03 05:09:08;;;;;;;11.85;2.22;;;11.90;99.90;;;;;;4985934;28;20066;-81
2022/01/03 05:11:34;;;;;;;12.15;2.42;;;13.20;99.90;;;;;;4992016;28;20054;-84
2022/01/03 05:13:59;;;;;;;12.57;2.67;;;11.90;99.90;;;;;;4983014;28;20023;-82
2022/01/03 05:16:25;;;;;;;10.48;2.47;;;11.20;99.90;;;;;;4980886;28;20030;-81
2022/01/03 05:18:51;;;;;;;9.77;2.33;;;11.10;99.90;;;;;;4982375;28;20510;-82
2022/01/03 05:21:16;;;;;;;13.05;2.80;;;11.20;99.90;;;;;;4977620;28;20464;-82
2022/01/03 05:23:42;;;;;;;13.85;2.05;;;11.20;99.90;;;;;;4985688;28;20042;-79
2022/01/03 05:26:08;;;;;;;12.88;2.88;;;11.10;99.90;;;;;;4980911;28;20038;-76
2022/01/03 05:28:34;;;;;;;11.23;2.30;;;11.00;99.90;;;;;;4988773;28;20038;-83
2022/01/03 05:31:00;;;;;;;11.55;2.53;;;11.10;99.90;;;;;;4989660;28;20018;-83
2022/01/03 05:33:25;;;;;;;12.93;2.65;;;11.10;99.90;;;;;;4978839;28;20041;-79
2022/01/03 05:35:51;;;;;;;13.38;2.17;;;11.20;99.90;;;;;;4974258;28;20030;-83
2022/01/03 05:38:16;;;;;;;12.55;2.00;;;11.20;99.90;;;;;;4985060;28;20035;-82
2022/01/03 05:40:42;;;;;;;8.77;1.90;;;11.20;99.90;;;;;;4990234;28;21434;-82
2022/01/03 05:43:10;;;;;;;7.75;1.83;;;11.10;99.90;;;;;;4979369;28;20518;-78
2022/01/03 05:45:36;;;;;;;14.50;2.85;;;11.20;99.90;;;;;;4987481;28;21625;-82
2022/01/03 05:48:02;;;;;;;7.85;1.92;;;11.10;99.90;;;;;;4994293;28;20034;-80
2022/01/03 05:50:27;;;;;;;17.65;2.30;;;11.10;99.90;;;;;;5000546;28;20059;-81
2022/01/03 05:52:53;;;;;;;13.23;2.20;;;11.20;99.90;;;;;;4992275;28;20437;-82
2022/01/03 05:55:20;;;;;;;14.80;2.03;;;11.10;99.90;;;;;;4980732;28;20080;-80
2022/01/03 05:57:46;;;;;;;11.30;2.05;;;11.20;99.90;;;;;;4976693;28;20034;-83
2022/01/03 06:00:14;;;;;;;10.85;1.88;;;11.20;99.90;;;;;;4977720;28;20026;-83
2022/01/03 06:02:42;;;;;;;10.95;1.92;;;11.10;99.90;;;;;;4992225;28;20031;-83
2022/01/03 06:05:10;;;;;;;14.50;1.92;;;11.10;99.90;;;;;;4976753;28;20047;-81
2022/01/03 06:07:36;;;;;;;12.68;1.80;;;11.20;99.90;;;;;;4988294;28;20421;-81
2022/01/03 06:10:08;;;;;;;9.40;1.67;;;11.10;99.90;;;;;;4977031;28;20043;-83
2022/01/03 06:12:34;;;;;;;11.85;1.80;;;11.10;99.90;;;;;;4977310;28;20026;-82
2022/01/03 06:14:59;;;;;;;14.07;2.70;;;11.10;99.90;;;;;;4988950;28;20027;-81
2022/01/03 06:17:25;;;;;;;14.05;3.00;;;12.00;99.90;;;;;;4975505;28;20046;-80
2022/01/03 06:19:51;;;;;;;15.10;3.05;;;11.90;99.90;;;;;;4977921;28;20035;-80
2022/01/03 06:22:17;;;;;;;11.25;2.65;;;11.00;99.90;;;;;;4982554;28;20109;-80
2022/01/03 06:24:44;;;;;;;15.85;3.78;;;11.10;99.90;;;;;;4977591;28;20081;-85
2022/01/03 06:27:10;;;;;;;12.20;2.63;;;11.00;99.90;;;;;;4985771;28;20034;-82
2022/01/03 06:29:35;;;;;;;9.98;1.80;;;10.90;99.90;;;;;;4977860;28;20030;-81
2022/01/03 06:32:01;;;;;;;10.00;2.35;;;11.10;99.90;;;;;;4987463;28;20035;-81
2022/01/03 06:34:27;;;;;;;10.88;2.13;;;11.20;99.90;;;;;;4995285;28;20019;-82
2022/01/03 06:36:53;;;;;;;14.50;2.10;;;;;;;;;;4984379;28;20536;-87
2022/01/03 06:39:19;;;;;;;12.27;2.17;;;11.20;99.90;;;;;;4989601;28;20122;-79
2022/01/03 06:41:45;;;;;;;7.25;1.30;;;11.10;99.90;;;;;;4989249;28;20336;-81
2022/01/03 06:44:10;;;;;;;8.15;1.67;;;11.60;99.90;;;;;;4997356;28;20121;-83
2022/01/03 06:46:36;;;;;;;13.10;2.47;;;11.00;99.90;;;;;;4994114;28;20084;-83
2022/01/03 06:49:05;;;;;;;10.43;2.17;;;10.90;99.90;;;;;;4980471;28;20110;-85
2022/01/03 06:51:34;;;;;;;12.85;3.05;;;10.90;99.90;;;;;;4981934;28;20046;-83
2022/01/03 06:54:06;;;;;;;15.95;2.40;;;10.90;99.90;;;;;;4987438;28;20094;-82
2022/01/03 06:56:32;;;;;;;9.75;2.08;;;10.90;99.90;;;;;;4992523;28;20419;-85
2022/01/03 06:58:58;;;;;;;10.75;2.22;;;10.90;99.90;;;;;;4970583;28;21191;-80
2022/01/03 07:01:24;;;;;;;12.82;2.60;;;11.20;99.90;;;;;;4975070;28;20139;-79
2022/01/03 07:03:49;;;;;;;11.25;1.88;;;11.50;99.90;;;;;;4976752;28;20026;-81
2022/01/03 07:06:15;;;;;;;17.13;3.03;;;10.80;99.90;;;;;;4985547;28;20068;-79
2022/01/03 07:08:40;;;;;;;14.57;2.00;;;10.80;99.90;;;;;;4980494;28;20087;-82
2022/01/03 07:11:06;;;;;;;13.18;1.90;;;10.80;99.90;;;;;;4979445;28;20070;-80
2022/01/03 07:13:41;;;;;;;13.43;2.55;;;10.80;99.90;;;;;;4989752;28;20392;-79
2022/01/03 07:18:56;;;;;;;18.08;2.78;;;10.70;99.90;;;;;;4976367;28;20045;-79
2022/01/03 07:21:23;;;;;;;10.07;1.90;;;10.70;99.90;;;;;;4980650;28;20026;-79
2022/01/03 07:23:49;;;;;;;9.98;1.80;;;;;;;;;;4974487;28;20064;-80
2022/01/03 07:26:15;;;;;;;12.60;2.13;;;10.90;99.90;;;;;;4972896;28;20031;-78
2022/01/03 07:28:42;;;;;;;7.07;1.67;;;10.90;99.90;;;;;;4979347;28;20037;-80
2022/01/03 07:31:07;;;;;;;14.85;2.97;;;10.90;99.90;;;;;;4973150;28;20105;-78
2022/01/03 07:33:33;;;;;;;9.50;2.10;;;11.00;99.90;;;;;;4978769;28;20055;-77
2022/01/03 07:35:59;;;;;;;12.50;2.20;;;10.90;99.90;;;;;;4974450;28;20023;-80
2022/01/03 07:38:24;;;;;;;15.85;2.20;;;11.00;99.90;;;;;;4973944;28;20026;-79
2022/01/03 07:40:50;;;;;;;11.48;2.22;;;10.90;99.90;;;;;;4989555;28;20169;-81
2022/01/03 07:43:15;;;;;;;10.50;2.35;;;10.90;99.90;;;;;;5002543;28;20034;-79
2022/01/03 07:45:41;;;;;;;11.07;2.47;;;10.80;99.90;;;;;;5006867;28;20028;-86
2022/01/03 07:48:07;;;;;;;12.15;2.30;;;10.80;99.90;;;;;;4998236;28;20018;-83
2022/01/03 07:50:33;;;;;;;13.55;2.15;;;10.90;99.90;;;;;;5009240;28;20040;-78
2022/01/03 07:52:59;;;;;;;10.77;2.35;;;10.90;99.90;;;;;;4997891;28;20340;-80
2022/01/03 07:55:26;;;;;;;16.75;2.42;;;10.90;99.90;;;;;;4991459;28;20212;-80
2022/01/03 07:57:55;;;;;;;10.63;2.20;;;10.90;99.90;;;;;;4983961;28;20492;-81
2022/01/03 08:00:21;;;;;;;13.48;2.80;;;10.90;99.90;;;;;;4968170;28;20038;-82
2022/01/03 08:02:46;;;;;;;8.80;1.70;;;10.90;99.90;;;;;;4978592;28;20118;-79
2022/01/03 08:05:14;;;;;;;13.07;2.53;;;11.00;99.90;;;;;;4983911;28;20086;-81
2022/01/03 08:07:42;;;;;;;9.27;2.15;;;11.00;99.90;;;;;;4995875;28;20035;-83
2022/01/03 08:10:09;;;;;;;10.27;2.72;;;11.00;99.90;;;;;;4977783;28;20031;-80
2022/01/03 08:12:37;;;;;;;15.10;2.58;;;11.10;99.90;;;;;;4984354;28;20045;-81
2022/01/03 08:15:04;;;;;;;15.98;2.85;;;11.00;99.90;;;;;;4982715;28;20281;-80
2022/01/03 08:17:29;;;;;;;9.65;2.35;;;11.10;99.90;;;;;;4987714;28;20057;-82
2022/01/03 08:19:55;;;;;;;17.92;2.35;;;11.10;99.90;;;;;;4997909;28;20038;-82
2022/01/03 08:22:20;;;;;;;12.57;2.22;;;11.20;99.90;;;;;;4982990;28;20030;-83
2022/01/03 08:24:46;;;;;;;8.25;1.88;;;11.20;99.90;;;;;;4981520;28;20110;-83
2022/01/03 08:27:12;;;;;;;19.55;2.65;;;11.20;99.90;;;;;;4977267;28;20034;-84
2022/01/03 08:29:38;;;;;;;8.98;1.67;;;;;;;;;;4996266;28;20027;-82
2022/01/03 08:32:04;;;;;;;16.75;3.10;;;11.20;99.90;;;;;;4981063;28;20054;-84
2022/01/03 08:34:30;;;;;;;11.82;1.80;;;11.30;99.90;;;;;;4981215;28;20598;-78
2022/01/03 08:36:56;;;;;;;11.43;2.20;;;;;;;;;;5007383;28;20022;-82
2022/01/03 08:39:22;;;;;;;10.30;1.75;;;;;;;;;;4986364;28;20499;-82
2022/01/03 08:41:48;;;;;;;9.57;2.53;;;;;;;;;;4989760;28;20050;-82
2022/01/03 08:44:14;;;;;;;14.00;2.33;;;;;;;;;;4982671;28;20049;-83
2022/01/03 08:46:40;;;;;;;17.48;3.25;;;;;;;;;;5020804;28;20083;-82
2022/01/03 08:49:06;;;;;;;13.77;2.15;;;;;;;;;;4971919;28;20501;-82
2022/01/03 08:51:32;;;;;;;12.38;2.30;;;11.50;99.90;;;;;;4975718;28;20730;-80
2022/01/03 08:53:58;;;;;;;17.45;2.40;;;11.40;99.90;;;;;;4981164;28;20030;-81
2022/01/03 08:56:24;;;;;;;6.28;1.58;;;;;;;;;;4982703;28;20024;-80
2022/01/03 08:58:49;;;;;;;14.27;2.63;;;11.50;99.90;;;;;;4975636;28;20039;-80
2022/01/03 09:01:15;;;;;;;12.82;2.30;;;11.40;99.90;;;;;;5002795;28;20026;-82
2022/01/03 09:03:41;;;;;;;14.23;2.90;;;11.90;99.90;;;;;;5010192;28;20477;-83
2022/01/03 09:06:07;;;;;;;11.38;2.13;;;11.30;99.90;;;;;;4986280;28;20042;-82
2022/01/03 09:08:32;;;;;;;19.40;3.00;;;11.40;99.90;;;;;;4985016;28;20544;-81
2022/01/03 09:10:58;;;;;;;11.55;2.03;;;11.40;99.90;;;;;;4983979;28;20035;-81
2022/01/03 09:13:24;;;;;;;13.13;2.55;;;11.90;99.90;;;;;;4979134;28;20037;-81
2022/01/03 09:15:50;;;;;;;10.70;2.22;;;11.30;99.90;;;;;;4978964;28;20031;-81
2022/01/03 09:18:18;;;;;;;12.63;2.28;;;11.30;99.90;;;;;;4984957;28;20095;-80
2022/01/03 09:20:45;;;;;;;12.75;2.72;;;11.30;99.90;;;;;;4982238;28;20054;-81
2022/01/03 09:23:24;;;;;;;10.52;2.70;;;11.30;99.90;;;;;;5006845;28;20364;-80
2022/01/03 09:28:52;;;;;;;15.25;2.60;;;11.30;99.90;;;;;;4982650;28;20803;-80
2022/01/03 09:31:22;;;;;;;15.73;2.25;;;11.40;99.90;;;;;;4980080;28;20027;-81
2022/01/03 09:33:47;;;;;;;13.07;2.60;;;11.40;99.90;;;;;;4983080;28;20130;-79
2022/01/03 09:36:13;;;;;;;16.50;3.30;;;11.40;99.90;;;;;;4992020;28;20097;-83
2022/01/03 09:38:38;;;;;;;9.02;2.15;;;11.70;99.90;;;;;;4989191;28;20030;-81
2022/01/03 09:41:06;;;;;;;12.85;2.15;;;11.70;99.90;;;;;;4994720;28;20095;-81
2022/01/03 09:43:52;;;;;;;9.98;2.00;;;11.80;99.90;;;;;;4986832;28;20117;-81
2022/01/03 09:46:27;;;;;;;13.60;2.60;;;11.60;99.90;;;;;;4995000;28;20058;-81
2022/01/03 09:48:55;;;;;;;12.50;2.88;;;11.60;99.90;;;;;;4992176;28;20058;-81
2022/01/03 09:51:23;;;;;;;11.10;2.20;;;12.10;99.90;;;;;;4992423;28;20031;-79
2022/01/03 09:53:50;;;;;;;11.10;2.50;;;11.60;99.90;;;;;;4977840;28;20472;-82
2022/01/03 09:56:17;;;;;;;12.80;2.63;;;12.20;99.90;;;;;;4991964;28;20508;-80
2022/01/03 09:58:42;;;;;;;11.88;2.22;;;11.40;99.90;;;;;;4977677;28;20031;-83
2022/01/03 10:01:10;;;;;;;10.40;2.17;;;11.50;99.90;;;;;;4987834;28;20057;-79
2022/01/03 10:03:35;;;;;;;14.98;2.53;;;13.70;99.90;;;;;;4985861;28;20146;-81
2022/01/03 10:06:02;;;;;;;12.85;2.25;;;;;;;;;;4980818;28;20065;-79
2022/01/03 10:08:28;;;;;;;12.70;1.90;;;;;;;;;;4980537;28;20181;-82
2022/01/03 10:10:54;;;;;;;16.13;2.50;;;;;;;;;;4981931;28;20030;-82
2022/01/03 10:13:20;;;;;;;11.80;2.53;;;;;;;;;;4980014;28;20081;-83
2022/01/03 10:15:47;;;;;;;13.30;1.90;;;11.80;99.90;;;;;;4984691;28;20073;-84
2022/01/03 10:18:18;;;;;;;18.52;3.47;;;;;;;;;;4978706;28;20134;-85
2022/01/03 10:20:44;;;;;;;13.95;2.30;;;;;;;;;;4976223;28;20027;-80
2022/01/03 10:23:14;;;;;;;10.70;1.90;;;11.80;99.90;;;;;;4979444;28;20072;-80
2022/01/03 10:25:40;;;;;;;13.27;2.50;;;11.80;99.90;;;;;;4978106;28;20023;-81
2022/01/03 10:28:06;;;;;;;13.57;3.05;;;11.80;99.90;;;;;;4973018;28;20733;-84
2022/01/03 10:30:35;;;;;;;14.00;2.92;;;11.70;99.90;;;;;;4988099;28;20023;-80
2022/01/03 10:33:06;;;;;;;9.15;2.13;;;13.30;99.90;;;;;;4984241;28;20027;-81
2022/01/03 10:35:56;;;;;;;14.63;2.60;;;11.60;99.90;;;;;;4980556;28;20039;-83
2022/01/03 10:38:43;;;;;;;11.00;1.90;;;11.60;99.90;;;;;;4984178;28;20031;-82
2022/01/03 10:41:18;;;;;;;14.10;2.22;;;11.70;99.90;;;;;;4992019;28;20026;-79
2022/01/03 10:44:01;;;;;;;17.45;3.13;;;11.40;99.90;;;;;;4981684;28;20030;-80
2022/01/03 10:46:35;;;;;;;13.73;2.47;;;11.30;99.90;;;;;;4978617;28;20019;-83
2022/01/03 10:49:11;;;;;;;12.95;2.15;;;11.30;99.90;;;;;;4980771;28;20467;-82
2022/01/03 10:51:37;;;;;;;16.27;3.20;;;11.20;99.90;;;;;;4976686;28;20480;-80
2022/01/03 10:54:12;;;;;;;14.73;2.30;;;11.10;99.90;;;;;;4973453;28;20077;-84
2022/01/03 10:56:43;;;;;;;15.40;2.72;;;11.00;99.90;;;;;;4995082;28;20049;-83
2022/01/03 10:59:22;;;;;;;11.55;2.60;;;11.60;99.90;;;;;;4977445;28;20069;-79
2022/01/03 11:02:05;;;;;;;14.43;2.50;;;11.10;99.90;;;;;;4976261;28;20494;-83
2022/01/03 11:04:42;;;;;;;11.35;2.90;;;11.10;99.90;;;;;;4981648;28;20064;-81
2022/01/03 11:13:10;;;;;;;17.45;3.33;;;11.40;99.90;;;;;;4986336;28;20046;-80
2022/01/03 11:15:42;;;;;;;11.50;2.35;;;11.40;99.90;;;;;;4995313;28;20018;-81
2022/01/03 11:18:08;;;;;;;16.35;2.55;;;12.40;99.90;;;;;;4999277;28;20034;-77
2022/01/03 11:20:34;;;;;;;13.68;2.80;;;11.50;99.90;;;;;;5014704;28;20103;-78
2022/01/03 11:22:59;;;;;;;11.10;2.15;;;11.50;99.90;;;;;;5016554;28;20090;-80
2022/01/03 11:25:30;;;;;;;12.77;2.17;;;11.50;99.90;;;;;;4989059;28;20547;-79
2022/01/03 11:27:56;;;;;;;;;;;11.60;99.90;;;;;;4994708;28;20071;-78
2022/01/03 11:30:22;;;;;;;13.05;2.33;;;11.70;99.90;;;;;;4985668;28;19918;-81
2022/01/03 11:32:50;;;;;;;14.38;2.70;;;11.60;99.90;;;;;;4982813;28;20062;-78
2022/01/03 11:35:16;;;;;;;13.60;2.22;;;11.60;99.90;;;;;;4991864;28;20149;-78
2022/01/03 11:37:46;;;;;;;11.10;2.35;;;11.70;99.90;;;;;;4975833;28;20022;-81
2022/01/03 11:40:14;;;;;;;9.40;2.47;;;11.70;99.90;;;;;;4980493;28;20490;-78
2022/01/03 11:42:41;;;;;;;13.73;2.95;;;11.60;99.90;;;;;;4979345;28;20060;-79
2022/01/03 11:45:07;;;;;;;11.93;1.98;;;11.60;99.90;;;;;;4981014;28;20063;-81
2022/01/03 11:47:35;;;;;;;12.40;1.92;;;11.60;99.90;;;;;;4975609;28;20098;-80
2022/01/03 11:50:01;;;;;;;7.82;1.73;;;11.60;99.90;;;;;;4981533;28;20113;-81
2022/01/03 11:52:28;;;;;;;10.82;1.60;;;11.70;99.90;;;;;;4999909;28;20464;-82
2022/01/03 11:54:55;;;;;;;11.95;1.85;;;11.60;99.90;;;;;;4987154;28;20449;-78
2022/01/03 11:57:38;;;;;;;9.80;2.03;;;11.60;99.90;;;;;;4982979;28;20037;-79
2022/01/03 12:05:50;;;;;;;9.52;2.05;;;11.60;99.90;;;;;;4975641;28;20049;-78
2022/01/03 12:08:21;;;;;;;6.45;1.83;;;11.60;99.90;;;;;;4975760;28;20639;-81
2022/01/03 12:10:47;;;;;;;;;;;;;;;;;;4979436;28;20045;-79
2022/01/03 12:13:13;;;;;;;15.35;1.80;;;11.80;99.90;;;;;;4984022;28;19911;-83
2022/01/03 12:15:41;;;;;;;9.63;2.20;;;11.70;99.90;;;;;;4973060;28;20039;-79
2022/01/03 12:18:55;;;;;;;7.97;1.85;;;11.70;99.90;;;;;;4973787;28;20467;-79
2022/01/03 12:21:55;;;;;;;12.15;2.63;;;11.60;99.90;;;;;;5010777;28;20039;-80
2022/01/03 12:24:27;;;;;;;11.50;1.83;;;11.70;99.90;;;;;;4975241;28;20192;-82
2022/01/03 12:27:14;;;;;;;8.77;1.88;;;11.60;99.90;;;;;;4973830;28;20029;-83
2022/01/03 12:29:57;;;;;;;10.35;1.95;;;11.60;99.90;;;;;;4978703;28;20380;-79
2022/01/03 12:32:34;;;;;;;16.60;2.60;;;11.60;99.90;;;;;;4977391;28;20029;-81
2022/01/03 12:35:19;;;;;;;8.75;2.00;;;11.60;99.90;;;;;;4980310;28;20034;-81
2022/01/03 12:38:09;;;;;;;9.18;2.72;;;11.70;99.90;;;;;;4986288;28;20023;-79
2022/01/03 12:40:45;;;;;;;12.00;2.13;;;11.70;99.90;;;;;;4984779;28;20038;-83
2022/01/03 12:43:12;;;;;;;9.38;2.30;;;11.70;99.90;;;;;;4984391;28;20330;-80
2022/01/03 12:45:44;;;;;;;17.33;2.63;;;11.80;99.90;;;;;;4978576;28;20073;-81
2022/01/03 12:48:10;;;;;;;10.80;1.95;;;11.80;99.90;;;;;;4985577;28;20527;-80
2022/01/03 12:50:36;;;;;;;14.23;2.72;;;11.80;99.90;;;;;;4980498;28;20038;-81
2022/01/03 12:53:03;;;;;;;8.95;1.92;;;11.90;99.90;;;;;;4979347;28;20531;-82
2022/01/03 12:55:38;;;;;;;10.80;2.35;;;11.90;99.90;;;;;;4986439;28;20031;-85
2022/01/03 12:58:16;;;;;;;6.70;1.90;;;11.90;99.90;;;;;;4988977;28;20042;-79
2022/01/03 13:00:43;;;;;;;14.05;3.40;;;11.90;99.90;;;;;;4980364;28;20031;-81
2022/01/03 13:03:21;;;;;;;12.57;2.65;;;14.10;99.90;;;;;;4981537;28;20499;-79
2022/01/03 13:06:05;;;;;;;7.45;1.98;;;11.90;99.90;;;;;;4986605;28;20026;-79
2022/01/03 13:08:43;;;;;;;13.68;3.08;;;11.90;99.90;;;;;;4996624;28;20036;-81
2022/01/03 13:11:12;;;;;;;11.30;2.00;;;11.90;99.90;;;;;;4992796;28;20530;-79